Time;durP1;ratioP1;P1;durP2;ratioP2;P2;SDS_P1;SDS_P2;PMS_P1;PMS_P2;Temp;Humidity;BMP_temperature;BMP_pressure;BME280_temperature;BME280_humidity;BME280_pressure;Samples;Min_cycle;Max_cycle;Signal;HPM_P1;HPM_P2
2022/04/05 00:00:18;;;;;;;26.75;12.20;;;;;;;9.65;100.00;100009.84;5046034;28;20059;-72
2022/04/05 00:02:45;;;;;;;13.93;6.97;;;;;;;9.61;100.00;100004.31;5042903;28;20791;-73
2022/04/05 00:05:11;;;;;;;24.55;11.30;;;;;;;9.63;100.00;100012.19;5047132;28;20102;-72
2022/04/05 00:07:38;;;;;;;21.88;11.40;;;;;;;9.63;100.00;100010.25;5050642;28;20053;-73
2022/04/05 00:10:05;;;;;;;27.90;10.13;;;;;;;9.71;100.00;100003.44;5051544;28;20153;-72
2022/04/05 00:12:31;;;;;;;27.98;14.63;;;;;;;9.71;100.00;99999.91;5044973;28;20140;-71
2022/04/05 00:14:58;;;;;;;31.38;19.05;;;;;;;9.59;100.00;100014.97;5046235;28;20041;-72
2022/04/05 00:17:24;;;;;;;15.43;7.60;;;;;;;9.76;100.00;100000.22;5046355;28;20063;-73
2022/04/05 00:19:51;;;;;;;23.52;12.45;;;;;;;9.74;100.00;100015.66;5047140;28;20140;-71
2022/04/05 00:22:17;;;;;;;29.52;15.43;;;;;;;9.73;100.00;100008.56;5045622;28;20123;-72
2022/04/05 00:24:44;;;;;;;29.98;17.08;;;;;;;9.77;100.00;100010.13;5048186;28;20285;-73
2022/04/05 00:27:10;;;;;;;25.88;14.13;;;;;;;9.80;100.00;100002.97;5058450;28;20432;-74
2022/04/05 00:29:37;;;;;;;29.15;15.00;;;;;;;9.89;100.00;100004.06;5060437;28;20131;-73
2022/04/05 00:32:04;;;;;;;30.08;17.40;;;;;;;9.91;100.00;99993.41;5057092;28;20048;-73
2022/04/05 00:34:30;;;;;;;23.50;12.23;;;;;;;9.91;100.00;100007.22;5059437;28;20041;-72
2022/04/05 00:36:57;;;;;;;38.88;21.38;;;;;;;10.11;100.00;100008.22;5044997;28;20055;-73
2022/04/05 00:39:23;;;;;;;42.80;22.83;;;;;;;10.11;100.00;100008.22;5047289;28;20059;-73
2022/04/05 00:41:50;;;;;;;52.70;31.05;;;;;;;10.08;100.00;100009.03;5050820;28;20049;-76
2022/04/05 00:44:17;;;;;;;40.03;21.67;;;;;;;10.12;100.00;100004.25;5053359;28;21320;-77
2022/04/05 00:46:44;;;;;;;44.53;23.88;;;;;;;10.13;100.00;100002.28;5039805;28;20400;-77
2022/04/05 00:49:16;;;;;;;46.92;26.77;;;;;;;10.15;100.00;100005.41;5048239;28;20063;-77
2022/04/05 00:51:42;;;;;;;23.38;12.15;;;;;;;10.13;100.00;100008.59;5045310;28;20497;-76
2022/04/05 00:54:12;;;;;;;23.35;11.27;;;;;;;10.14;100.00;100009.38;5045372;28;20139;-76
2022/04/05 00:56:40;;;;;;;47.33;23.92;;;;;;;10.26;100.00;100023.44;5051444;28;20485;-78
2022/04/05 00:59:09;;;;;;;48.00;24.48;;;;;;;10.27;100.00;100024.25;5037453;28;20049;-76
2022/04/05 01:01:36;;;;;;;45.78;25.05;;;;;;;10.35;100.00;100022.97;5047874;28;20132;-76
2022/04/05 01:04:03;;;;;;;45.42;24.20;;;;;;;10.32;100.00;100032.06;5047847;28;20091;-76
2022/04/05 01:06:34;;;;;;;43.42;23.48;;;;;;;10.35;100.00;100034.81;5050063;28;20048;-78
2022/04/05 01:09:01;;;;;;;36.60;19.30;;;;;;;10.42;100.00;100053.28;5050025;28;20083;-77
2022/04/05 01:11:27;;;;;;;19.20;8.38;;;;;;;10.39;100.00;100049.38;5047084;28;20127;-76
2022/04/05 01:13:54;;;;;;;17.67;7.70;;;;;;;10.33;100.00;100059.31;5051229;28;20045;-77
2022/04/05 01:16:21;;;;;;;11.32;4.15;;;;;;;10.22;100.00;100066.16;5048384;28;20103;-76
2022/04/05 01:18:48;;;;;;;11.07;4.63;;;;;;;10.15;100.00;100067.00;5048720;28;20072;-76
2022/04/05 01:21:15;;;;;;;10.90;4.05;;;;;;;10.07;100.00;100079.34;5049730;28;20051;-77
2022/04/05 01:24:02;;;;;;;13.63;4.43;;;;;;;10.04;100.00;100074.59;5050592;28;20509;-76
2022/04/05 01:26:28;;;;;;;9.27;3.88;;;;;;;10.01;100.00;100069.09;5049610;28;20075;-76
2022/04/05 01:28:55;;;;;;;11.50;4.03;;;;;;;10.15;100.00;100080.84;5048837;28;20049;-77
2022/04/05 01:31:21;;;;;;;10.60;4.78;;;;;;;9.99;100.00;100069.50;5052587;28;20262;-76
2022/04/05 01:33:48;;;;;;;17.13;5.22;;;;;;;10.05;100.00;100078.13;5053390;28;20041;-76
2022/04/05 01:36:22;;;;;;;11.55;4.63;;;;;;;9.95;100.00;100088.09;5050600;28;20045;-79
2022/04/05 01:38:49;;;;;;;11.32;4.63;;;;;;;9.91;100.00;100090.09;5051303;28;20072;-76
2022/04/05 01:41:15;;;;;;;10.18;3.60;;;;;;;9.85;100.00;100097.25;5057581;28;20044;-75
2022/04/05 01:43:42;;;;;;;10.95;4.43;;;;;;;9.90;100.00;100096.84;5052534;28;20484;-76
2022/04/05 01:46:08;;;;;;;9.13;3.40;;;;;;;9.79;100.00;100082.31;5050203;28;20049;-76
2022/04/05 01:48:35;;;;;;;9.70;3.90;;;;;;;9.78;100.00;100102.03;5049284;28;20125;-76
2022/04/05 01:51:02;;;;;;;8.95;3.40;;;;;;;9.76;100.00;100091.41;5048794;28;20053;-77
2022/04/05 01:53:28;;;;;;;9.38;3.75;;;;;;;9.75;100.00;100092.59;5042668;28;20159;-75
2022/04/05 01:55:54;;;;;;;10.15;4.13;;;;;;;9.72;100.00;100107.22;5048120;28;20059;-75
2022/04/05 01:58:21;;;;;;;8.32;3.35;;;;;;;9.72;100.00;100101.69;5044470;28;20497;-76
2022/04/05 02:00:50;;;;;;;9.52;3.90;;;;;;;9.71;100.00;100099.34;5047580;28;20049;-75
2022/04/05 02:03:17;;;;;;;9.77;3.97;;;;;;;9.73;100.00;100102.50;5047006;28;20060;-76
2022/04/05 02:05:46;;;;;;;9.18;3.90;;;;;;;9.69;100.00;100102.50;5049664;28;20053;-77
2022/04/05 02:08:13;;;;;;;10.57;4.03;;;;;;;9.68;100.00;100109.22;5050717;28;20048;-75
2022/04/05 02:10:40;;;;;;;11.82;4.28;;;;;;;9.66;100.00;100111.59;5050430;28;20053;-76
2022/04/05 02:13:08;;;;;;;11.68;4.38;;;;;;;9.67;100.00;100110.44;5044647;28;20060;-77
2022/04/05 02:15:34;;;;;;;13.88;4.97;;;;;;;9.61;100.00;100101.00;5050104;28;20083;-75
2022/04/05 02:18:01;;;;;;;12.68;4.78;;;;;;;9.62;100.00;100102.56;5049889;28;20144;-76
2022/04/05 02:20:28;;;;;;;15.52;5.45;;;;;;;9.64;100.00;100100.19;5049146;28;20584;-76
2022/04/05 02:22:54;;;;;;;14.55;5.40;;;;;;;9.60;100.00;100107.72;5047340;28;20520;-76
2022/04/05 02:25:21;;;;;;;14.65;5.75;;;;;;;9.63;100.00;100106.91;5049426;28;20049;-77
2022/04/05 02:27:47;;;;;;;16.35;6.10;;;;;;;9.61;100.00;100105.72;5049019;28;20481;-75
2022/04/05 02:30:14;;;;;;;12.77;5.32;;;;;;;9.57;100.00;100099.44;5052993;28;20734;-75
2022/04/05 02:32:40;;;;;;;15.85;6.07;;;;;;;9.58;100.00;100104.56;5051277;28;20508;-76
2022/04/05 02:35:08;;;;;;;11.60;4.78;;;;;;;9.50;100.00;100093.97;5056746;28;20076;-76
2022/04/05 02:37:35;;;;;;;13.15;5.30;;;;;;;9.49;100.00;100109.75;5049829;28;20049;-76
2022/04/05 02:40:01;;;;;;;12.52;5.30;;;;;;;9.56;100.00;100106.97;5048699;28;20869;-76
2022/04/05 02:42:28;;;;;;;14.63;5.68;;;;;;;9.61;100.00;100123.09;5060363;28;20497;-75
2022/04/05 02:44:54;;;;;;;14.82;5.40;;;;;;;9.65;100.00;100121.09;5049666;28;20048;-75
2022/04/05 02:47:22;;;;;;;11.82;4.93;;;;;;;9.63;100.00;100117.97;5036675;28;20063;-76
2022/04/05 02:49:49;;;;;;;10.95;4.43;;;;;;;9.67;100.00;100115.16;5048858;28;20135;-75
2022/04/05 02:52:15;;;;;;;13.27;4.57;;;;;;;9.70;100.00;100120.66;5047768;28;20136;-76
2022/04/05 02:54:42;;;;;;;12.50;4.88;;;;;;;9.75;100.00;100116.66;5047835;28;20128;-75
2022/04/05 02:57:09;;;;;;;11.27;4.47;;;;;;;9.74;100.00;100115.09;5042430;28;20049;-76
2022/04/05 02:59:35;;;;;;;10.32;4.38;;;;;;;9.75;100.00;100119.44;5048040;28;20132;-76
2022/04/05 03:02:03;;;;;;;12.10;4.35;;;;;;;9.75;100.00;100116.66;5048207;28;20151;-75
2022/04/05 03:04:30;;;;;;;11.38;4.20;;;;;;;9.72;100.00;100129.31;5048086;28;20497;-76
2022/04/05 03:06:56;;;;;;;9.73;3.88;;;;;;;9.62;100.00;100123.88;5047240;28;20069;-75
2022/04/05 03:09:23;;;;;;;12.55;4.70;;;;;;;9.63;100.00;100120.72;5050956;28;20072;-75
2022/04/05 03:11:50;;;;;;;13.50;4.70;;;;;;;9.58;100.00;100123.91;5047742;28;20469;-76
2022/04/05 03:14:17;;;;;;;11.07;3.83;;;;;;;9.58;100.00;100126.66;5048462;28;20156;-76
2022/04/05 03:16:43;;;;;;;10.93;4.13;;;;;;;9.56;100.00;100128.25;5035782;28;20055;-75
2022/04/05 03:19:10;;;;;;;10.70;3.90;;;;;;;9.48;100.00;100123.94;5045016;28;20049;-76
2022/04/05 03:21:36;;;;;;;9.80;4.18;;;;;;;9.47;100.00;100130.66;5047893;28;20558;-75
2022/04/05 03:24:04;;;;;;;8.73;3.85;;;;;;;9.58;100.00;100128.63;5048706;28;20134;-76
2022/04/05 03:26:30;;;;;;;9.98;3.60;;;;;;;9.34;100.00;100127.59;5038897;28;20053;-76
2022/04/05 03:28:57;;;;;;;8.38;3.78;;;;;;;9.33;100.00;100128.00;5048231;28;20057;-76
2022/04/05 03:31:24;;;;;;;8.02;3.20;;;;;;;9.31;100.00;100120.13;5051769;28;20053;-78
2022/04/05 03:33:50;;;;;;;9.35;3.90;;;;;;;9.32;100.00;100127.19;5059593;28;20135;-76
2022/04/05 03:36:17;;;;;;;9.63;3.80;;;;;;;9.28;100.00;100126.44;5042353;28;20063;-76
2022/04/05 03:38:43;;;;;;;10.15;4.00;;;;;;;9.32;100.00;100118.91;5059797;28;20044;-76
2022/04/05 03:41:10;;;;;;;10.65;4.07;;;;;;;9.32;100.00;100127.19;5050242;28;20040;-76
2022/04/05 03:43:36;;;;;;;12.80;4.18;;;;;;;9.30;100.00;100123.28;5054053;28;20044;-79
2022/04/05 03:46:03;;;;;;;9.35;3.80;;;;;;;9.25;100.00;100127.25;5047681;28;20049;-75
2022/04/05 03:48:29;;;;;;;11.95;4.00;;;;;;;9.28;100.00;100118.16;5040942;28;20059;-76
2022/04/05 03:50:56;;;;;;;11.18;4.68;;;;;;;9.32;100.00;100121.69;5048512;28;20118;-78
2022/04/05 03:53:23;;;;;;;11.95;4.90;;;;;;;9.37;100.00;100124.03;5046828;28;20074;-77
2022/04/05 03:55:50;;;;;;;7.13;3.55;;;;;;;9.24;100.00;100119.34;5047283;28;20045;-76
2022/04/05 03:58:16;;;;;;;16.55;5.90;;;;;;;9.30;100.00;100129.59;5047042;28;20076;-77
2022/04/05 04:00:43;;;;;;;10.23;3.97;;;;;;;9.22;100.00;100121.75;5048649;28;20063;-76
2022/04/05 04:03:09;;;;;;;13.52;5.72;;;;;;;9.32;100.00;100127.19;5048988;28;20048;-76
2022/04/05 04:05:36;;;;;;;4.28;1.75;;;;;;;9.23;100.00;100134.34;5051564;28;20040;-77
2022/04/05 04:08:02;;;;;;;14.20;5.00;;;;;;;9.27;100.00;100126.84;5051424;28;20055;-76
2022/04/05 04:10:29;;;;;;;11.57;4.38;;;;;;;9.26;100.00;100131.59;5050843;28;20049;-76
2022/04/05 04:12:55;;;;;;;13.90;5.55;;;;;;;9.60;100.00;100138.09;5047589;28;20136;-76
2022/04/05 04:15:22;;;;;;;13.02;5.43;;;;;;;9.49;100.00;100126.31;5048947;28;20052;-76
2022/04/05 04:17:49;;;;;;;4.15;2.13;;;;;;;9.36;100.00;100129.97;5044615;28;20041;-76
2022/04/05 04:20:15;;;;;;;12.88;4.40;;;;;;;9.51;100.00;100132.22;5040537;28;20044;-78
2022/04/05 04:22:41;;;;;;;13.55;5.05;;;;;;;9.51;100.00;100129.47;5047694;28;20049;-76
2022/04/05 04:25:08;;;;;;;11.25;4.43;;;;;;;9.50;100.00;100138.94;5048269;28;20037;-76
2022/04/05 04:27:35;;;;;;;13.18;4.80;;;;;;;9.47;100.00;100127.91;5044489;28;20140;-76
2022/04/05 04:30:03;;;;;;;15.05;5.68;;;;;;;9.52;100.00;100130.25;5045021;28;20128;-76
2022/04/05 04:32:30;;;;;;;14.60;4.47;;;;;;;9.54;100.00;100131.41;5049177;28;20131;-77
2022/04/05 04:34:57;;;;;;;8.20;3.28;;;;;;;9.60;100.00;100120.72;5050246;28;20134;-76
2022/04/05 04:37:23;;;;;;;7.47;3.00;;;;;;;9.55;100.00;100123.94;5046398;28;20136;-75
2022/04/05 04:39:50;;;;;;;14.98;4.95;;;;;;;9.52;100.00;100130.25;5039185;28;20136;-77
2022/04/05 04:42:16;;;;;;;14.27;5.35;;;;;;;9.50;100.00;100135.38;5058869;28;20102;-75
2022/04/05 04:44:43;;;;;;;12.57;4.20;;;;;;;9.40;100.00;100133.47;5047178;28;20055;-76
2022/04/05 04:47:09;;;;;;;13.93;4.63;;;;;;;9.44;100.00;100135.03;5046335;28;20053;-76
2022/04/05 04:49:36;;;;;;;14.30;5.05;;;;;;;9.46;100.00;100135.44;5047606;28;20057;-76
2022/04/05 04:52:03;;;;;;;13.07;5.30;;;;;;;9.50;100.00;100138.16;5046574;28;20045;-75
2022/04/05 04:54:30;;;;;;;16.38;5.18;;;;;;;9.57;100.00;100135.34;5047817;28;20081;-75
2022/04/05 04:56:56;;;;;;;15.85;5.60;;;;;;;9.49;100.00;100136.59;5045264;28;20649;-75
2022/04/05 04:59:23;;;;;;;18.73;5.90;;;;;;;9.50;100.00;100135.38;5051307;28;20053;-78
2022/04/05 05:01:50;;;;;;;19.30;6.78;;;;;;;9.59;100.00;100132.97;5049836;28;20088;-75
2022/04/05 05:04:16;;;;;;;18.20;7.43;;;;;;;9.57;100.00;100132.59;5049825;28;20049;-76
2022/04/05 05:06:45;;;;;;;14.15;5.30;;;;;;;9.47;100.00;100134.22;5044670;28;20045;-75
2022/04/05 05:09:12;;;;;;;19.25;7.97;;;;;;;9.53;100.00;100134.59;5052543;28;20059;-75
2022/04/05 05:11:39;;;;;;;18.40;7.63;;;;;;;9.69;100.00;100141.19;5051009;28;20051;-76
2022/04/05 05:14:09;;;;;;;19.98;7.78;;;;;;;9.57;100.00;100133.38;5050905;28;20052;-75
2022/04/05 05:16:35;;;;;;;19.98;8.90;;;;;;;9.68;100.00;100138.81;5044461;28;20063;-76
2022/04/05 05:19:03;;;;;;;19.05;8.32;;;;;;;9.70;100.00;100137.25;5048392;28;20124;-77
2022/04/05 05:21:31;;;;;;;21.05;9.13;;;;;;;9.69;100.00;100134.88;5048618;28;20041;-78
2022/04/05 05:23:58;;;;;;;20.05;4.75;;;;;;;9.58;100.00;100145.19;5051705;28;20057;-75
2022/04/05 05:26:24;;;;;;;21.63;7.45;;;;;;;9.68;100.00;100139.63;5049649;28;20505;-77
2022/04/05 05:28:51;;;;;;;18.27;8.35;;;;;;;9.61;100.00;100144.38;5049851;28;20116;-77
2022/04/05 05:31:17;;;;;;;23.58;8.23;;;;;;;9.62;100.00;100146.75;5058625;28;20048;-77
2022/04/05 05:33:44;;;;;;;18.08;8.07;;;;;;;9.55;100.00;100152.31;5061386;28;20052;-76
2022/04/05 05:36:11;;;;;;;17.33;8.20;;;;;;;9.76;100.00;100151.41;5050770;28;20049;-77
2022/04/05 05:38:37;;;;;;;17.52;7.38;;;;;;;9.62;100.00;100148.75;5049051;28;20044;-75
2022/04/05 05:41:04;;;;;;;21.13;9.48;;;;;;;9.78;100.00;100151.78;5054232;28;20063;-75
2022/04/05 05:43:30;;;;;;;22.08;8.48;;;;;;;9.78;100.00;100147.03;5060840;28;20059;-75
2022/04/05 05:45:58;;;;;;;20.80;9.68;;;;;;;9.75;100.00;100147.84;5059090;28;20505;-76
2022/04/05 05:48:24;;;;;;;22.25;9.98;;;;;;;9.83;100.00;100156.88;5038014;28;20083;-75
2022/04/05 05:50:51;;;;;;;20.33;9.13;;;;;;;9.80;100.00;100158.50;5049003;28;20048;-77
2022/04/05 05:53:17;;;;;;;20.17;8.98;;;;;;;9.79;100.00;100162.41;5048937;28;20072;-77
2022/04/05 05:55:45;;;;;;;20.85;9.43;;;;;;;9.71;100.00;100155.38;5050019;28;20707;-75
2022/04/05 05:58:11;;;;;;;18.77;8.40;;;;;;;9.69;100.00;100157.75;5049221;28;20136;-75
2022/04/05 06:00:38;;;;;;;19.30;8.10;;;;;;;9.68;100.00;100145.13;5049573;28;20067;-74
2022/04/05 06:03:04;;;;;;;22.63;8.05;;;;;;;9.74;100.00;100159.31;5050059;28;20053;-75
2022/04/05 06:05:31;;;;;;;20.17;6.70;;;;;;;9.63;100.00;100167.69;5047931;28;20041;-76
2022/04/05 06:07:58;;;;;;;21.25;8.85;;;;;;;9.72;100.00;100156.19;5049739;28;20941;-75
2022/04/05 06:10:26;;;;;;;21.45;9.05;;;;;;;9.76;100.00;100154.94;5049386;28;20055;-76
2022/04/05 06:12:55;;;;;;;20.70;7.82;;;;;;;9.76;100.00;100168.75;5048287;28;20136;-79
2022/04/05 06:15:23;;;;;;;24.25;9.07;;;;;;;9.74;100.00;100167.59;5050342;28;20106;-76
2022/04/05 06:17:50;;;;;;;24.08;9.68;;;;;;;9.82;100.00;100164.38;5049416;28;20087;-77
2022/04/05 06:20:20;;;;;;;20.17;8.70;;;;;;;9.71;100.00;100160.91;5081089;28;20509;-75
2022/04/05 06:22:53;;;;;;;23.95;9.95;;;;;;;9.72;100.00;100150.66;5047384;28;20053;-76
2022/04/05 06:25:22;;;;;;;24.27;9.27;;;;;;;9.83;100.00;100167.94;5049573;28;20128;-76
2022/04/05 06:27:49;;;;;;;25.27;9.50;;;;;;;9.83;100.00;100157.66;5049671;28;20075;-76
2022/04/05 06:30:16;;;;;;;29.45;11.55;;;;;;;9.93;100.00;100162.31;5053395;28;20098;-76
2022/04/05 06:32:43;;;;;;;24.75;11.52;;;;;;;9.94;100.00;100163.13;5041236;28;20107;-75
2022/04/05 06:35:11;;;;;;;24.95;9.98;;;;;;;9.88;100.00;100160.00;5070690;28;20124;-74
2022/04/05 06:37:38;;;;;;;22.58;9.80;;;;;;;9.83;100.00;100162.41;5047851;28;20049;-76
2022/04/05 06:40:06;;;;;;;18.88;6.47;;;;;;;9.84;100.00;100163.97;5043165;28;20083;-77
2022/04/05 06:42:35;;;;;;;25.80;10.65;;;;;;;9.84;100.00;100159.25;5057367;28;20141;-75
2022/04/05 06:45:02;;;;;;;24.23;10.50;;;;;;;9.85;100.00;100160.81;5045843;28;20091;-75
2022/04/05 06:47:28;;;;;;;23.17;10.10;;;;;;;9.87;100.00;100163.97;5049478;28;20692;-74
2022/04/05 06:49:55;;;;;;;30.33;12.45;;;;;;;9.97;100.00;100154.81;5049466;28;20080;-76
2022/04/05 06:52:21;;;;;;;31.75;13.27;;;;;;;10.09;100.00;100161.84;5047250;28;20151;-75
2022/04/05 06:54:48;;;;;;;28.10;12.10;;;;;;;10.08;100.00;100158.31;5048966;28;20139;-75
2022/04/05 06:57:15;;;;;;;32.95;12.15;;;;;;;10.07;100.00;100159.50;5053691;28;20127;-77
2022/04/05 06:59:46;;;;;;;29.05;12.48;;;;;;;10.09;100.00;100165.38;5048879;28;20067;-75
2022/04/05 07:02:12;;;;;;;37.00;12.70;;;;;;;10.20;100.00;100166.09;5048589;28;20045;-75
2022/04/05 07:04:39;;;;;;;30.20;13.73;;;;;;;10.13;100.00;100160.63;5048264;28;20045;-74
2022/04/05 07:07:05;;;;;;;27.88;11.63;;;;;;;10.21;100.00;100166.88;5050415;28;20116;-74
2022/04/05 07:09:32;;;;;;;30.83;12.73;;;;;;;10.24;100.00;100164.09;5051607;28;20059;-76
2022/04/05 07:12:02;;;;;;;38.35;13.15;;;;;;;9.84;100.00;100159.25;5050737;28;20109;-75
2022/04/05 07:14:28;;;;;;;33.60;14.18;;;;;;;9.76;100.00;100163.22;5050572;28;20048;-77
2022/04/05 07:16:55;;;;;;;33.45;13.35;;;;;;;9.79;100.00;100162.41;5043575;28;20156;-79
2022/04/05 07:19:22;;;;;;;24.08;9.63;;;;;;;9.73;100.00;100163.25;5049537;28;20116;-77
2022/04/05 07:21:48;;;;;;;37.83;15.13;;;;;;;9.77;100.00;100147.44;5048130;28;20140;-76
2022/04/05 07:24:15;;;;;;;29.42;13.82;;;;;;;9.74;100.00;100156.53;5042064;28;20114;-77
2022/04/05 07:26:41;;;;;;;32.47;12.70;;;;;;;9.74;100.00;100151.00;5048039;28;20045;-77
2022/04/05 07:29:08;;;;;;;37.95;16.05;;;;;;;9.81;100.00;100154.53;5048645;28;20055;-76
2022/04/05 07:31:34;;;;;;;37.05;15.10;;;;;;;9.88;100.00;100159.19;5054908;28;20076;-82
2022/04/05 07:34:03;;;;;;;38.50;19.35;;;;;;;9.99;100.00;100160.69;5052807;28;20049;-78
2022/04/05 07:36:31;;;;;;;36.55;17.27;;;;;;;10.04;100.00;100146.47;5049429;28;20056;-78
2022/04/05 07:38:58;;;;;;;38.70;16.83;;;;;;;10.09;100.00;100154.34;5046528;28;20080;-78
2022/04/05 07:41:25;;;;;;;34.17;14.10;;;;;;;10.26;100.00;100153.41;5058087;28;20052;-79
2022/04/05 07:43:52;;;;;;;26.30;11.02;;;;;;;10.29;100.00;100149.03;5052632;28;20409;-78
2022/04/05 07:46:19;;;;;;;43.05;20.60;;;;;;;10.47;100.00;100153.19;5042986;28;20077;-76
2022/04/05 07:48:47;;;;;;;42.72;19.90;;;;;;;10.55;100.00;100151.16;5047263;28;20048;-78
2022/04/05 07:51:14;;;;;;;39.13;18.95;;;;;;;10.59;100.00;100153.91;5047541;28;20505;-79
2022/04/05 07:53:41;;;;;;;41.45;19.90;;;;;;;10.74;100.00;100145.03;5054273;28;20836;-78
2022/04/05 07:56:09;;;;;;;43.40;20.73;;;;;;;10.85;100.00;100153.19;5046673;28;20048;-78
2022/04/05 07:58:35;;;;;;;46.20;23.48;;;;;;;10.92;100.00;100153.13;5041999;28;20195;-79
2022/04/05 08:01:02;;;;;;;32.10;15.40;;;;;;;11.06;100.00;100145.44;5048079;28;20164;-77
2022/04/05 08:03:29;;;;;;;42.45;21.92;;;;;;;11.14;100.00;100160.75;5048305;28;20513;-77
2022/04/05 08:05:55;;;;;;;23.10;11.70;;;;;;;11.23;100.00;100160.25;5047969;28;20049;-77
2022/04/05 08:08:22;;;;;;;37.33;18.38;;;;;;;11.26;100.00;100153.91;5050041;28;20536;-78
2022/04/05 08:11:09;;;;;;;37.17;19.88;;;;;;;11.31;100.00;100153.44;5034270;28;20053;-80
2022/04/05 08:13:35;;;;;;;29.60;13.95;;;;;;;11.31;100.00;100153.44;5044689;28;20135;-77
2022/04/05 08:16:02;;;;;;;13.57;6.00;;;;;;;11.31;100.00;100156.97;5062897;28;20578;-79
2022/04/05 08:18:28;;;;;;;15.43;7.20;;;;;;;11.40;100.00;100164.78;5045872;28;20143;-77
2022/04/05 08:20:55;;;;;;;30.60;14.15;;;;;;;11.47;100.00;100165.47;5048100;28;20068;-76
2022/04/05 08:23:22;;;;;;;32.53;16.50;;;;;;;11.51;100.00;100162.69;5043359;28;20061;-77
2022/04/05 08:25:49;;;;;;;32.55;15.93;;;;;;;11.56;100.00;100162.19;5043596;28;20171;-77
2022/04/05 08:28:16;;;;;;;31.42;16.42;;;;;;;11.50;100.00;100166.63;5047126;28;20049;-80
2022/04/05 08:30:43;;;;;;;34.45;18.63;;;;;;;11.44;100.00;100166.31;5048896;28;20136;-77
2022/04/05 08:33:09;;;;;;;29.63;14.48;;;;;;;11.54;100.00;100170.16;5057834;28;20064;-76
2022/04/05 08:35:37;;;;;;;35.83;18.05;;;;;;;11.56;100.00;100178.81;5062770;28;20114;-77
2022/04/05 08:38:04;;;;;;;18.48;8.77;;;;;;;11.54;100.00;100178.47;5043469;28;20075;-78
2022/04/05 08:40:31;;;;;;;26.90;12.15;;;;;;;11.52;100.00;100173.34;5050741;28;20052;-79
2022/04/05 08:42:58;;;;;;;13.50;6.47;;;;;;;11.57;100.00;100172.06;5061449;28;20519;-76
2022/04/05 08:45:26;;;;;;;26.23;10.85;;;;;;;11.54;100.00;100187.53;5050507;28;20049;-78
2022/04/05 08:47:58;;;;;;;31.95;15.43;;;;;;;11.73;100.00;100173.06;5045248;28;20135;-77
2022/04/05 08:50:31;;;;;;;31.88;15.45;;;;;;;11.79;100.00;100171.41;5050728;28;20144;-76
2022/04/05 08:53:00;;;;;;;27.70;10.07;;;;;;;11.75;100.00;100169.88;5050361;28;20131;-78
2022/04/05 08:55:35;;;;;;;17.42;6.40;;;;;;;11.78;100.00;100177.38;5050138;28;20102;-79
2022/04/05 08:58:03;;;;;;;29.75;14.13;;;;;;;11.87;100.00;100177.59;5052708;28;20489;-76
2022/04/05 09:00:29;;;;;;;23.70;10.68;;;;;;;11.85;100.00;100180.81;5043477;28;20123;-76
2022/04/05 09:03:02;;;;;;;32.00;17.27;;;;;;;11.94;100.00;100186.63;5047512;28;20460;-76
2022/04/05 09:05:32;;;;;;;30.02;15.32;;;;;;;11.90;100.00;100176.78;5053987;28;20048;-77
2022/04/05 09:08:12;;;;;;;31.13;16.35;;;;;;;12.10;100.00;100183.19;5045635;28;20048;-78
2022/04/05 09:10:41;;;;;;;36.00;19.70;;;;;;;12.23;100.00;100189.72;5063444;28;20080;-79
2022/04/05 09:13:12;;;;;;;37.22;19.10;;;;;;;12.26;100.00;100178.56;5051244;28;20087;-79
2022/04/05 09:15:41;;;;;;;26.75;13.73;;;;;;;12.14;100.00;100181.94;5052754;28;20564;-77
2022/04/05 09:18:08;;;;;;;38.50;20.70;;;;;;;12.33;100.00;100180.44;5056970;28;20132;-78
2022/04/05 09:20:47;;;;;;;16.23;7.45;;;;;;;12.13;100.00;100171.28;5056719;28;20068;-78
2022/04/05 09:23:33;;;;;;;26.95;12.73;;;;;;;12.08;100.00;100178.06;5055000;28;20080;-81
2022/04/05 09:26:05;;;;;;;23.40;12.48;;;;;;;12.09;100.00;100181.66;5052997;28;20075;-79
2022/04/05 09:28:44;;;;;;;23.63;8.13;;;;;;;12.21;100.00;100178.25;5051807;28;20496;-78
2022/04/05 09:31:12;;;;;;;24.83;10.73;;;;;;;12.27;100.00;100191.25;5050781;28;20561;-80
2022/04/05 09:34:00;;;;;;;13.82;5.50;;;;;;;12.26;100.00;100188.91;5052714;28;20157;-80
2022/04/05 09:36:35;;;;;;;31.23;14.80;;;;;;;12.37;100.00;100183.94;5058288;28;20053;-81
2022/04/05 09:39:16;;;;;;;23.10;10.18;;;;;;;12.28;100.00;100192.00;5059228;28;20056;-79
2022/04/05 09:41:48;;;;;;;28.42;13.55;;;;;;;12.49;100.00;100191.69;5060042;28;20079;-79
2022/04/05 09:44:43;;;;;;;22.52;9.85;;;;;;;12.45;100.00;100199.25;5063223;28;20044;-79
2022/04/05 09:47:17;;;;;;;29.38;14.27;;;;;;;12.56;100.00;100192.31;5051361;28;20354;-78
2022/04/05 09:49:49;;;;;;;14.40;5.93;;;;;;;12.45;100.00;100200.06;5062180;28;20040;-78
2022/04/05 09:52:25;;;;;;;4.70;2.53;;;;;;;12.64;100.00;100190.22;5056784;28;20128;-78
2022/04/05 09:54:52;;;;;;;17.67;7.25;;;;;;;12.63;100.00;100186.66;5083159;28;20048;-81
2022/04/05 09:57:32;;;;;;;9.93;4.20;;;;;;;12.62;100.00;100187.06;5053046;28;20045;-79
2022/04/05 10:00:09;;;;;;;9.73;4.82;;;;;;;12.65;100.00;100189.78;5053776;28;20132;-81
2022/04/05 10:02:36;;;;;;;16.38;7.57;;;;;;;12.81;100.00;100191.88;5068034;28;20049;-78
2022/04/05 10:05:05;;;;;;;23.25;10.60;;;;;;;12.84;100.00;100202.16;5053365;28;20148;-79
2022/04/05 10:07:32;;;;;;;7.30;3.83;;;;;;;12.81;100.00;100203.00;5057483;28;20060;-77
2022/04/05 10:10:02;;;;;;;23.20;11.13;;;;;;;12.92;100.00;100193.25;5062746;28;20107;-80
2022/04/05 10:12:29;;;;;;;23.80;11.48;;;;;;;12.99;100.00;100184.03;5053112;28;20455;-76
2022/04/05 10:14:55;;;;;;;11.30;4.88;;;;;;;12.80;100.00;100190.31;5050682;28;20132;-78
2022/04/05 10:17:26;;;;;;;24.00;9.90;;;;;;;12.93;100.00;100205.16;5035174;28;20052;-77
2022/04/05 10:19:54;;;;;;;15.80;6.18;;;;;;;12.95;100.00;100195.19;5046132;28;20152;-78
2022/04/05 10:22:22;;;;;;;15.88;6.40;;;;;;;12.84;100.00;100194.59;5038262;28;20126;-78
2022/04/05 10:24:51;;;;;;;27.45;13.05;;;;;;;12.95;100.00;100199.94;5046149;28;20164;-77
2022/04/05 10:27:22;;;;;;;18.00;9.75;;;;;;;13.03;100.00;100209.75;5052779;28;20041;-80
2022/04/05 10:30:04;;;;;;;23.98;11.20;;;;;;;13.07;100.00;100189.00;5052370;28;20144;-77
2022/04/05 10:32:54;;;;;;;28.30;13.43;;;;;;;13.12;100.00;100195.31;5047609;28;20057;-77
2022/04/05 10:35:23;;;;;;;30.55;15.05;;;;;;;13.19;100.00;100197.94;5043583;28;20053;-77
2022/04/05 10:37:53;;;;;;;26.90;13.63;;;;;;;13.19;100.00;100195.94;5050485;28;20556;-78
2022/04/05 10:40:20;;;;;;;23.25;12.18;;;;;;;13.22;100.00;100189.53;5050688;28;20120;-76
2022/04/05 10:42:49;;;;;;;30.98;15.82;;;;;;;13.53;100.00;100192.88;5050785;28;20049;-79
2022/04/05 10:45:29;;;;;;;19.40;9.32;;;;;;;13.51;100.00;100196.06;5048255;28;20134;-81
2022/04/05 10:48:02;;;;;;;28.15;13.70;;;;;;;13.51;100.00;100187.75;5049064;28;20049;-77
2022/04/05 10:51:00;;;;;;;17.55;7.10;;;;;;;13.22;100.00;100197.84;5044886;28;20052;-79
2022/04/05 10:53:38;;;;;;;22.08;8.13;;;;;;;13.38;100.00;100186.03;5048037;28;20816;-77
2022/04/05 10:56:09;;;;;;;24.50;13.15;;;;;;;13.44;100.00;100181.53;5048169;28;20075;-80
2022/04/05 10:58:38;;;;;;;10.43;5.07;;;;;;;13.51;100.00;100192.50;5054793;28;20436;-76
2022/04/05 11:01:33;;;;;;;27.08;15.55;;;;;;;13.82;100.00;100188.22;5048539;28;20045;-77
2022/04/05 11:04:16;;;;;;;22.05;10.52;;;;;;;13.59;100.00;100180.00;5048932;28;20065;-79
2022/04/05 11:06:58;;;;;;;5.90;2.55;;;;;;;13.76;100.00;100179.63;5050189;28;20155;-76
2022/04/05 11:09:26;;;;;;;17.88;8.82;;;;;;;13.77;100.00;100175.63;5052953;28;20057;-71
2022/04/05 11:11:54;;;;;;;17.52;7.35;;;;;;;13.44;100.00;100171.22;5045868;28;20061;-78
2022/04/05 11:14:38;;;;;;;13.20;5.72;;;;;;;13.67;100.00;100179.41;5048896;28;20049;-77
2022/04/05 11:17:07;;;;;;;18.20;9.45;;;;;;;13.62;100.00;100174.38;5048236;28;20210;-78